sensor_id;sensor_type;location;lat;lon;timestamp;pressure;altitude;pressure_sealevel;temperature;humidity
75221;BME280;63802;53.232;6.570;2023-07-09T00:01:04;101880.19;;;21.25;100.00
75221;BME280;63802;53.232;6.570;2023-07-09T00:03:30;101884.56;;;21.22;100.00
75221;BME280;63802;53.232;6.570;2023-07-09T00:05:56;101878.63;;;21.17;100.00
75221;BME280;63802;53.232;6.570;2023-07-09T00:08:26;101883.03;;;21.14;100.00
75221;BME280;63802;53.232;6.570;2023-07-09T00:10:54;101885.41;;;21.16;100.00
75221;BME280;63802;53.232;6.570;2023-07-09T00:13:20;101874.31;;;21.12;100.00
75221;BME280;63802;53.232;6.570;2023-07-09T00:15:45;101881.47;;;21.13;100.00
75221;BME280;63802;53.232;6.570;2023-07-09T00:18:11;101876.75;;;21.03;100.00
75221;BME280;63802;53.232;6.570;2023-07-09T00:20:36;101873.97;;;21.03;100.00
75221;BME280;63802;53.232;6.570;2023-07-09T00:23:02;101877.19;;;20.98;100.00
75221;BME280;63802;53.232;6.570;2023-07-09T00:25:29;101861.81;;;20.87;100.00
75221;BME280;63802;53.232;6.570;2023-07-09T00:27:55;101881.59;;;20.92;100.00
75221;BME280;63802;53.232;6.570;2023-07-09T00:30:23;101878.41;;;20.94;100.00
75221;BME280;63802;53.232;6.570;2023-07-09T00:32:49;101871.31;;;20.89;100.00
75221;BME280;63802;53.232;6.570;2023-07-09T00:35:15;101877.25;;;20.88;100.00
75221;BME280;63802;53.232;6.570;2023-07-09T00:37:42;101876.06;;;20.85;100.00
75221;BME280;63802;53.232;6.570;2023-07-09T00:40:18;101873.75;;;20.80;100.00
75221;BME280;63802;53.232;6.570;2023-07-09T00:42:48;101873.34;;;20.78;100.00
75221;BME280;63802;53.232;6.570;2023-07-09T00:45:20;101880.88;;;20.81;100.00
75221;BME280;63802;53.232;6.570;2023-07-09T00:47:56;101883.69;;;20.78;100.00
75221;BME280;63802;53.232;6.570;2023-07-09T00:50:34;101878.94;;;20.71;100.00
75221;BME280;63802;53.232;6.570;2023-07-09T00:53:25;101876.16;;;20.71;100.00
75221;BME280;63802;53.232;6.570;2023-07-09T00:55:54;101862.34;;;20.64;100.00
75221;BME280;63802;53.232;6.570;2023-07-09T00:58:22;101866.66;;;20.68;100.00
75221;BME280;63802;53.232;6.570;2023-07-09T01:00:55;101865.09;;;20.67;100.00
75221;BME280;63802;53.232;6.570;2023-07-09T01:03:43;101869.09;;;20.63;100.00
75221;BME280;63802;53.232;6.570;2023-07-09T01:06:10;101864.38;;;20.56;100.00
75221;BME280;63802;53.232;6.570;2023-07-09T01:08:39;101865.94;;;20.61;100.00
75221;BME280;63802;53.232;6.570;2023-07-09T01:11:18;101864.34;;;20.60;100.00
75221;BME280;63802;53.232;6.570;2023-07-09T01:13:48;101866.75;;;20.58;100.00
75221;BME280;63802;53.232;6.570;2023-07-09T01:16:16;101874.69;;;20.56;100.00
75221;BME280;63802;53.232;6.570;2023-07-09T01:18:42;101872.31;;;20.54;100.00
75221;BME280;63802;53.232;6.570;2023-07-09T01:21:10;101879.44;;;20.52;100.00
75221;BME280;63802;53.232;6.570;2023-07-09T01:23:43;101878.69;;;20.51;100.00
75221;BME280;63802;53.232;6.570;2023-07-09T01:26:27;101874.72;;;20.49;100.00
75221;BME280;63802;53.232;6.570;2023-07-09T01:28:55;101865.28;;;20.36;100.00
75221;BME280;63802;53.232;6.570;2023-07-09T01:31:21;101873.56;;;20.43;100.00
75221;BME280;63802;53.232;6.570;2023-07-09T01:33:48;101862.88;;;20.38;100.00
75221;BME280;63802;53.232;6.570;2023-07-09T01:36:17;101877.97;;;20.33;100.00
75221;BME280;63802;53.232;6.570;2023-07-09T01:38:44;101860.56;;;20.26;100.00
75221;BME280;63802;53.232;6.570;2023-07-09T01:41:10;101859.78;;;20.32;100.00
75221;BME280;63802;53.232;6.570;2023-07-09T01:43:39;101864.47;;;20.39;100.00
75221;BME280;63802;53.232;6.570;2023-07-09T01:46:07;101866.88;;;20.37;100.00
75221;BME280;63802;53.232;6.570;2023-07-09T01:48:34;101871.63;;;20.33;100.00
75221;BME280;63802;53.232;6.570;2023-07-09T01:51:07;101874.06;;;20.27;100.00
75221;BME280;63802;53.232;6.570;2023-07-09T01:53:35;101866.13;;;20.26;100.00
75221;BME280;63802;53.232;6.570;2023-07-09T01:56:03;101860.56;;;20.26;100.00
75221;BME280;63802;53.232;6.570;2023-07-09T01:58:29;101855.06;;;20.15;100.00
75221;BME280;63802;53.232;6.570;2023-07-09T02:00:56;101855.06;;;20.15;100.00
75221;BME280;63802;53.232;6.570;2023-07-09T02:03:21;101869.69;;;20.19;100.00
75221;BME280;63802;53.232;6.570;2023-07-09T02:05:52;101864.56;;;20.14;100.00
75221;BME280;63802;53.232;6.570;2023-07-09T02:08:18;101870.94;;;20.08;100.00
75221;BME280;63802;53.232;6.570;2023-07-09T02:10:44;101867.78;;;20.02;100.00
75221;BME280;63802;53.232;6.570;2023-07-09T02:13:10;101860.66;;;19.97;100.00
75221;BME280;63802;53.232;6.570;2023-07-09T02:15:36;101862.25;;;19.98;100.00
75221;BME280;63802;53.232;6.570;2023-07-09T02:18:02;101863.03;;;20.02;100.00
75221;BME280;63802;53.232;6.570;2023-07-09T02:20:27;101858.66;;;20.01;100.00
75221;BME280;63802;53.232;6.570;2023-07-09T02:22:53;101851.97;;;19.95;100.00
75221;BME280;63802;53.232;6.570;2023-07-09T02:25:18;101862.25;;;19.98;100.00
75221;BME280;63802;53.232;6.570;2023-07-09T02:27:44;101855.91;;;19.94;100.00
75221;BME280;63802;53.232;6.570;2023-07-09T02:30:10;101869.78;;;19.94;100.00
75221;BME280;63802;53.232;6.570;2023-07-09T02:32:36;101855.16;;;19.90;100.00
75221;BME280;63802;53.232;6.570;2023-07-09T02:35:02;101860.69;;;19.90;100.00
75221;BME280;63802;53.232;6.570;2023-07-09T02:37:28;101859.94;;;19.86;100.00
75221;BME280;63802;53.232;6.570;2023-07-09T02:39:53;101855.97;;;19.84;100.00
75221;BME280;63802;53.232;6.570;2023-07-09T02:42:20;101852.00;;;19.78;100.00
75221;BME280;63802;53.232;6.570;2023-07-09T02:44:47;101852.44;;;19.76;100.00
75221;BME280;63802;53.232;6.570;2023-07-09T02:47:13;101849.69;;;19.69;100.00
75221;BME280;63802;53.232;6.570;2023-07-09T02:49:39;101846.94;;;19.62;100.00
75221;BME280;63802;53.232;6.570;2023-07-09T02:52:05;101856.81;;;19.63;100.00
75221;BME280;63802;53.232;6.570;2023-07-09T02:54:31;101853.66;;;19.65;100.00
75221;BME280;63802;53.232;6.570;2023-07-09T02:56:57;101844.91;;;19.63;100.00
75221;BME280;63802;53.232;6.570;2023-07-09T02:59:23;101852.84;;;19.64;100.00
75221;BME280;63802;53.232;6.570;2023-07-09T03:01:49;101857.19;;;19.65;100.00
75221;BME280;63802;53.232;6.570;2023-07-09T03:04:15;101854.41;;;19.65;100.00
75221;BME280;63802;53.232;6.570;2023-07-09T03:06:41;101849.69;;;19.62;100.00
75221;BME280;63802;53.232;6.570;2023-07-09T03:09:09;101856.81;;;19.63;100.00
75221;BME280;63802;53.232;6.570;2023-07-09T03:11:35;101860.75;;;19.59;100.00
75221;BME280;63802;53.232;6.570;2023-07-09T03:14:01;101857.59;;;19.53;100.00
75221;BME280;63802;53.232;6.570;2023-07-09T03:16:29;101857.63;;;19.43;100.00
75221;BME280;63802;53.232;6.570;2023-07-09T03:18:54;101860.38;;;19.32;100.00
75221;BME280;63802;53.232;6.570;2023-07-09T03:21:21;101861.97;;;19.26;100.00
75221;BME280;63802;53.232;6.570;2023-07-09T03:23:47;101853.69;;;19.19;100.00
75221;BME280;63802;53.232;6.570;2023-07-09T03:26:12;101851.69;;;19.12;100.00
75221;BME280;63802;53.232;6.570;2023-07-09T03:28:38;101865.50;;;19.12;100.00
75221;BME280;63802;53.232;6.570;2023-07-09T03:31:04;101861.19;;;19.11;100.00
75221;BME280;63802;53.232;6.570;2023-07-09T03:33:29;101858.41;;;19.08;100.00
75221;BME280;63802;53.232;6.570;2023-07-09T03:35:55;101869.47;;;19.08;100.00
75221;BME280;63802;53.232;6.570;2023-07-09T03:38:21;101861.56;;;19.03;100.00
75221;BME280;63802;53.232;6.570;2023-07-09T03:40:53;101867.91;;;19.07;100.00
75221;BME280;63802;53.232;6.570;2023-07-09T03:43:19;101866.69;;;19.08;100.00
75221;BME280;63802;53.232;6.570;2023-07-09T03:45:45;101867.13;;;19.17;100.00
75221;BME280;63802;53.232;6.570;2023-07-09T03:48:11;101863.16;;;19.25;100.00
75221;BME280;63802;53.232;6.570;2023-07-09T03:50:37;101859.22;;;19.26;100.00
75221;BME280;63802;53.232;6.570;2023-07-09T03:53:05;101870.28;;;19.36;100.00
75221;BME280;63802;53.232;6.570;2023-07-09T03:55:31;101868.69;;;19.39;100.00
75221;BME280;63802;53.232;6.570;2023-07-09T03:57:57;101865.94;;;19.39;100.00
75221;BME280;63802;53.232;6.570;2023-07-09T04:00:23;101865.53;;;19.48;100.00
75221;BME280;63802;53.232;6.570;2023-07-09T04:02:50;101858.41;;;19.50;100.00
75221;BME280;63802;53.232;6.570;2023-07-09T04:05:16;101852.88;;;19.57;100.00
75221;BME280;63802;53.232;6.570;2023-07-09T04:07:43;101871.03;;;19.65;100.00
75221;BME280;63802;53.232;6.570;2023-07-09T04:10:09;101863.13;;;19.71;100.00
75221;BME280;63802;53.232;6.570;2023-07-09T04:12:35;101861.13;;;19.78;100.00
75221;BME280;63802;53.232;6.570;2023-07-09T04:15:03;101859.91;;;19.90;100.00
75221;BME280;63802;53.232;6.570;2023-07-09T04:17:28;101854.31;;;19.97;100.00
75221;BME280;63802;53.232;6.570;2023-07-09T04:19:54;101855.50;;;19.99;100.00
75221;BME280;63802;53.232;6.570;2023-07-09T04:22:19;101854.69;;;20.06;100.00
75221;BME280;63802;53.232;6.570;2023-07-09T04:24:44;101855.84;;;20.08;100.00
75221;BME280;63802;53.232;6.570;2023-07-09T04:27:11;101857.44;;;20.17;100.00
75221;BME280;63802;53.232;6.570;2023-07-09T04:29:39;101866.91;;;20.26;100.00
75221;BME280;63802;53.232;6.570;2023-07-09T04:32:12;101865.31;;;20.32;100.00
75221;BME280;63802;53.232;6.570;2023-07-09T04:34:38;101869.25;;;20.35;100.00
75221;BME280;63802;53.232;6.570;2023-07-09T04:37:06;101872.38;;;20.40;100.00
75221;BME280;63802;53.232;6.570;2023-07-09T04:39:32;101871.16;;;20.48;100.00
75221;BME280;63802;53.232;6.570;2023-07-09T04:41:58;101874.69;;;20.56;100.00
75221;BME280;63802;53.232;6.570;2023-07-09T04:44:23;101868.31;;;20.59;100.00
75221;BME280;63802;53.232;6.570;2023-07-09T04:46:50;101868.28;;;20.66;100.00
75221;BME280;63802;53.232;6.570;2023-07-09T04:49:16;101866.28;;;20.70;100.00
75221;BME280;63802;53.232;6.570;2023-07-09T04:51:41;101848.47;;;20.64;100.00
75221;BME280;63802;53.232;6.570;2023-07-09T04:54:07;101859.41;;;20.85;100.00
75221;BME280;63802;53.232;6.570;2023-07-09T04:56:32;101854.59;;;20.93;100.00
75221;BME280;63802;53.232;6.570;2023-07-09T04:58:58;101855.34;;;21.00;100.00
75221;BME280;63802;53.232;6.570;2023-07-09T05:01:23;101869.97;;;21.11;100.00
75221;BME280;63802;53.232;6.570;2023-07-09T05:03:49;101871.09;;;21.21;100.00
75221;BME280;63802;53.232;6.570;2023-07-09T05:06:14;101868.66;;;21.26;100.00
75221;BME280;63802;53.232;6.570;2023-07-09T05:08:40;101869.41;;;21.30;100.00
75221;BME280;63802;53.232;6.570;2023-07-09T05:11:07;101870.91;;;21.38;100.00
75221;BME280;63802;53.232;6.570;2023-07-09T05:13:33;101865.81;;;21.33;100.00
75221;BME280;63802;53.232;6.570;2023-07-09T05:15:58;101883.53;;;21.47;100.00
75221;BME280;63802;53.232;6.570;2023-07-09T05:18:24;101874.69;;;21.59;100.00
75221;BME280;63802;53.232;6.570;2023-07-09T05:20:49;101873.41;;;21.67;100.00
75221;BME280;63802;53.232;6.570;2023-07-09T05:23:15;101872.13;;;21.78;100.00
75221;BME280;63802;53.232;6.570;2023-07-09T05:25:40;101865.75;;;21.78;100.00
75221;BME280;63802;53.232;6.570;2023-07-09T05:28:06;101875.16;;;21.91;100.00
75221;BME280;63802;53.232;6.570;2023-07-09T05:30:32;101859.91;;;22.06;100.00
75221;BME280;63802;53.232;6.570;2023-07-09T05:33:00;101866.09;;;22.17;100.00
75221;BME280;63802;53.232;6.570;2023-07-09T05:35:26;101869.78;;;22.41;100.00
75221;BME280;63802;53.232;6.570;2023-07-09T05:37:53;101876.00;;;22.52;100.00
75221;BME280;63802;53.232;6.570;2023-07-09T05:40:19;101869.44;;;22.65;100.00
75221;BME280;63802;53.232;6.570;2023-07-09T05:42:45;101866.47;;;22.80;100.00
75221;BME280;63802;53.232;6.570;2023-07-09T05:45:10;101864.47;;;22.80;100.00
75221;BME280;63802;53.232;6.570;2023-07-09T05:47:36;101869.88;;;22.91;100.00
75221;BME280;63802;53.232;6.570;2023-07-09T05:50:02;101868.13;;;23.00;100.00
75221;BME280;63802;53.232;6.570;2023-07-09T05:52:29;101875.16;;;23.08;100.00
75221;BME280;63802;53.232;6.570;2023-07-09T05:54:55;101866.28;;;23.17;100.00
75221;BME280;63802;53.232;6.570;2023-07-09T05:57:20;101885.16;;;23.29;100.00
75221;BME280;63802;53.232;6.570;2023-07-09T05:59:46;101874.25;;;23.42;100.00
75221;BME280;63802;53.232;6.570;2023-07-09T06:02:17;101878.41;;;23.53;99.28
75221;BME280;63802;53.232;6.570;2023-07-09T06:04:43;101881.47;;;23.59;99.16
75221;BME280;63802;53.232;6.570;2023-07-09T06:07:09;101885.66;;;23.70;99.02
75221;BME280;63802;53.232;6.570;2023-07-09T06:09:35;101885.16;;;23.75;98.03
75221;BME280;63802;53.232;6.570;2023-07-09T06:12:02;101881.44;;;23.82;96.86
75221;BME280;63802;53.232;6.570;2023-07-09T06:14:28;101889.16;;;23.74;97.49
75221;BME280;63802;53.232;6.570;2023-07-09T06:16:54;101870.25;;;23.62;99.07
75221;BME280;63802;53.232;6.570;2023-07-09T06:19:20;101876.63;;;23.63;100.00
75221;BME280;63802;53.232;6.570;2023-07-09T06:21:45;101895.38;;;23.82;100.00
75221;BME280;63802;53.232;6.570;2023-07-09T06:24:11;101885.38;;;23.84;98.16
75221;BME280;63802;53.232;6.570;2023-07-09T06:26:36;101893.47;;;23.98;99.21
75221;BME280;63802;53.232;6.570;2023-07-09T06:29:02;101895.66;;;24.11;100.00
75221;BME280;63802;53.232;6.570;2023-07-09T06:31:29;101886.69;;;24.19;95.21
75221;BME280;63802;53.232;6.570;2023-07-09T06:33:58;101893.09;;;24.55;93.63
75221;BME280;63802;53.232;6.570;2023-07-09T06:36:23;101889.72;;;24.64;90.60
75221;BME280;63802;53.232;6.570;2023-07-09T06:38:49;101894.22;;;24.78;90.82
75221;BME280;63802;53.232;6.570;2023-07-09T06:41:15;101905.16;;;24.88;87.71
75221;BME280;63802;53.232;6.570;2023-07-09T06:43:41;101899.97;;;24.87;88.17
75221;BME280;63802;53.232;6.570;2023-07-09T06:46:10;101893.09;;;25.23;85.95
75221;BME280;63802;53.232;6.570;2023-07-09T06:48:35;101908.16;;;25.46;84.47
75221;BME280;63802;53.232;6.570;2023-07-09T06:51:01;101905.13;;;25.69;84.60
75221;BME280;63802;53.232;6.570;2023-07-09T06:53:27;101907.72;;;26.05;80.81
75221;BME280;63802;53.232;6.570;2023-07-09T06:55:54;101879.81;;;25.88;81.56
75221;BME280;63802;53.232;6.570;2023-07-09T06:58:22;101908.03;;;26.23;79.98
75221;BME280;63802;53.232;6.570;2023-07-09T07:00:50;101905.69;;;26.21;78.35
75221;BME280;63802;53.232;6.570;2023-07-09T07:03:16;101903.53;;;26.13;79.47
75221;BME280;63802;53.232;6.570;2023-07-09T07:05:45;101901.66;;;26.22;80.02
75221;BME280;63802;53.232;6.570;2023-07-09T07:08:14;101911.19;;;26.37;81.70
75221;BME280;63802;53.232;6.570;2023-07-09T07:10:40;101907.47;;;26.28;77.37
75221;BME280;63802;53.232;6.570;2023-07-09T07:13:06;101914.59;;;26.57;79.32
75221;BME280;63802;53.232;6.570;2023-07-09T07:15:31;101909.66;;;26.61;77.74
75221;BME280;63802;53.232;6.570;2023-07-09T07:17:57;101908.44;;;26.63;75.40
75221;BME280;63802;53.232;6.570;2023-07-09T07:20:22;101907.81;;;26.84;76.12
75221;BME280;63802;53.232;6.570;2023-07-09T07:22:48;101904.41;;;27.14;74.86
75221;BME280;63802;53.232;6.570;2023-07-09T07:25:14;101911.88;;;27.55;72.18
75221;BME280;63802;53.232;6.570;2023-07-09T07:27:39;101914.03;;;27.85;69.32
75221;BME280;63802;53.232;6.570;2023-07-09T07:30:06;101922.78;;;28.30;70.03
75221;BME280;63802;53.232;6.570;2023-07-09T07:32:37;101919.56;;;28.93;68.76
75221;BME280;63802;53.232;6.570;2023-07-09T07:35:02;101909.69;;;28.58;63.77
75221;BME280;63802;53.232;6.570;2023-07-09T07:37:28;101906.53;;;28.56;65.67
75221;BME280;63802;53.232;6.570;2023-07-09T07:39:53;101906.31;;;28.41;65.34
75221;BME280;63802;53.232;6.570;2023-07-09T07:42:19;101925.09;;;28.23;68.36
75221;BME280;63802;53.232;6.570;2023-07-09T07:44:45;101926.34;;;28.22;69.67
75221;BME280;63802;53.232;6.570;2023-07-09T07:47:11;101919.25;;;28.39;70.11
75221;BME280;63802;53.232;6.570;2023-07-09T07:49:37;101914.13;;;28.16;70.62
75221;BME280;63802;53.232;6.570;2023-07-09T07:52:03;101927.25;;;28.40;73.03
75221;BME280;63802;53.232;6.570;2023-07-09T07:54:29;101926.97;;;28.47;70.96
75221;BME280;63802;53.232;6.570;2023-07-09T07:56:57;101928.88;;;28.81;72.14
75221;BME280;63802;53.232;6.570;2023-07-09T07:59:23;101934.06;;;29.32;73.05
75221;BME280;63802;53.232;6.570;2023-07-09T08:01:48;101941.03;;;29.85;69.21
75221;BME280;63802;53.232;6.570;2023-07-09T08:04:15;101934.63;;;30.03;66.60
75221;BME280;63802;53.232;6.570;2023-07-09T08:06:40;101933.66;;;30.33;66.91
75221;BME280;63802;53.232;6.570;2023-07-09T08:09:06;101936.81;;;30.35;65.61
75221;BME280;63802;53.232;6.570;2023-07-09T08:11:31;101936.56;;;30.66;65.33
75221;BME280;63802;53.232;6.570;2023-07-09T08:13:58;101929.09;;;30.95;63.76
75221;BME280;63802;53.232;6.570;2023-07-09T08:16:24;101925.44;;;31.04;63.60
75221;BME280;63802;53.232;6.570;2023-07-09T08:18:49;101925.81;;;30.97;63.27
75221;BME280;63802;53.232;6.570;2023-07-09T08:21:17;101921.91;;;30.85;61.86
75221;BME280;63802;53.232;6.570;2023-07-09T08:23:42;101917.00;;;31.04;63.52
75221;BME280;63802;53.232;6.570;2023-07-09T08:26:08;101925.59;;;31.09;63.97
75221;BME280;63802;53.232;6.570;2023-07-09T08:28:34;101930.25;;;31.12;66.04
75221;BME280;63802;53.232;6.570;2023-07-09T08:31:01;101929.59;;;31.50;64.67
75221;BME280;63802;53.232;6.570;2023-07-09T08:33:26;101923.59;;;31.57;63.78
75221;BME280;63802;53.232;6.570;2023-07-09T08:35:53;101920.47;;;31.55;63.68
75221;BME280;63802;53.232;6.570;2023-07-09T08:38:19;101918.59;;;31.52;61.80
75221;BME280;63802;53.232;6.570;2023-07-09T08:43:33;101918.22;;;31.36;61.09
75221;BME280;63802;53.232;6.570;2023-07-09T08:48:36;101913.78;;;32.06;60.13
75221;BME280;63802;53.232;6.570;2023-07-09T08:51:15;101929.56;;;32.27;60.90
75221;BME280;63802;53.232;6.570;2023-07-09T08:53:50;101925.31;;;32.61;59.05
75221;BME280;63802;53.232;6.570;2023-07-09T08:56:19;101923.31;;;32.81;56.50
75221;BME280;63802;53.232;6.570;2023-07-09T08:58:46;101921.16;;;32.76;57.91
75221;BME280;63802;53.232;6.570;2023-07-09T09:01:18;101923.03;;;33.14;57.84
75221;BME280;63802;53.232;6.570;2023-07-09T09:03:48;101912.22;;;33.13;55.76
75221;BME280;63802;53.232;6.570;2023-07-09T09:06:35;101920.72;;;32.98;54.82
75221;BME280;63802;53.232;6.570;2023-07-09T09:11:50;101916.75;;;33.25;54.79
75221;BME280;63802;53.232;6.570;2023-07-09T09:16:55;101927.72;;;33.17;54.04
75221;BME280;63802;53.232;6.570;2023-07-09T09:19:52;101910.13;;;32.78;56.93
75221;BME280;63802;53.232;6.570;2023-07-09T09:22:23;101916.69;;;32.40;57.29
75221;BME280;63802;53.232;6.570;2023-07-09T09:25:23;101904.81;;;32.22;58.63
75221;BME280;63802;53.232;6.570;2023-07-09T09:27:49;101914.38;;;32.39;62.92
75221;BME280;63802;53.232;6.570;2023-07-09T09:30:18;101923.34;;;32.52;60.86
75221;BME280;63802;53.232;6.570;2023-07-09T09:32:47;101919.41;;;32.35;61.46
75221;BME280;63802;53.232;6.570;2023-07-09T09:35:16;101922.75;;;32.48;58.60
75221;BME280;63802;53.232;6.570;2023-07-09T09:37:49;101923.44;;;32.43;56.09
75221;BME280;63802;53.232;6.570;2023-07-09T09:40:17;101934.66;;;32.52;58.55
75221;BME280;63802;53.232;6.570;2023-07-09T09:42:43;101932.88;;;32.40;60.89
75221;BME280;63802;53.232;6.570;2023-07-09T09:45:15;101932.31;;;32.36;59.18
75221;BME280;63802;53.232;6.570;2023-07-09T09:47:43;101942.03;;;32.06;61.39
75221;BME280;63802;53.232;6.570;2023-07-09T09:50:13;101934.72;;;31.75;60.39
75221;BME280;63802;53.232;6.570;2023-07-09T09:52:39;101939.03;;;31.86;62.47
75221;BME280;63802;53.232;6.570;2023-07-09T09:55:11;101939.69;;;32.19;64.69
75221;BME280;63802;53.232;6.570;2023-07-09T09:57:38;101947.63;;;31.91;61.08
75221;BME280;63802;53.232;6.570;2023-07-09T10:00:04;101937.81;;;32.01;61.17
75221;BME280;63802;53.232;6.570;2023-07-09T10:02:38;101944.56;;;32.18;59.49
75221;BME280;63802;53.232;6.570;2023-07-09T10:05:11;101934.72;;;32.14;58.83
75221;BME280;63802;53.232;6.570;2023-07-09T10:07:44;101937.75;;;32.25;61.32
75221;BME280;63802;53.232;6.570;2023-07-09T10:10:20;101948.88;;;32.72;61.16
75221;BME280;63802;53.232;6.570;2023-07-09T10:12:50;101945.94;;;32.67;56.98
75221;BME280;63802;53.232;6.570;2023-07-09T10:15:48;101956.69;;;32.77;57.25
75221;BME280;63802;53.232;6.570;2023-07-09T10:18:42;101950.03;;;32.80;55.38
75221;BME280;63802;53.232;6.570;2023-07-09T10:22:10;101955.94;;;33.12;58.56
75221;BME280;63802;53.232;6.570;2023-07-09T10:24:35;101957.72;;;32.94;55.97
75221;BME280;63802;53.232;6.570;2023-07-09T10:29:42;101954.59;;;33.82;53.91
75221;BME280;63802;53.232;6.570;2023-07-09T10:35:09;101947.59;;;34.03;50.26
75221;BME280;63802;53.232;6.570;2023-07-09T10:40:29;101945.81;;;34.26;50.48
75221;BME280;63802;53.232;6.570;2023-07-09T10:43:02;101933.94;;;34.02;50.51
75221;BME280;63802;53.232;6.570;2023-07-09T10:45:54;101927.56;;;33.61;51.87
75221;BME280;63802;53.232;6.570;2023-07-09T10:48:51;101938.06;;;34.01;53.01
75221;BME280;63802;53.232;6.570;2023-07-09T10:56:49;101934.97;;;34.24;48.61
75221;BME280;63802;53.232;6.570;2023-07-09T10:59:29;101937.09;;;34.29;50.05
75221;BME280;63802;53.232;6.570;2023-07-09T11:02:11;101928.50;;;34.50;51.18
75221;BME280;63802;53.232;6.570;2023-07-09T11:07:16;101924.88;;;34.18;48.58
75221;BME280;63802;53.232;6.570;2023-07-09T11:09:46;101919.69;;;34.16;48.30
75221;BME280;63802;53.232;6.570;2023-07-09T11:12:29;101917.06;;;34.13;48.20
75221;BME280;63802;53.232;6.570;2023-07-09T11:15:03;101905.47;;;33.91;47.84
75221;BME280;63802;53.232;6.570;2023-07-09T11:17:30;101900.59;;;33.91;47.90
75221;BME280;63802;53.232;6.570;2023-07-09T11:20:00;101903.25;;;34.00;46.75
75221;BME280;63802;53.232;6.570;2023-07-09T11:22:39;101899.22;;;34.32;46.81
75221;BME280;63802;53.232;6.570;2023-07-09T11:25:16;101902.06;;;34.32;47.30
75221;BME280;63802;53.232;6.570;2023-07-09T11:28:00;101897.81;;;34.48;46.30
75221;BME280;63802;53.232;6.570;2023-07-09T11:30:28;101895.63;;;34.63;46.01
75221;BME280;63802;53.232;6.570;2023-07-09T11:33:03;101895.19;;;34.13;45.38
75221;BME280;63802;53.232;6.570;2023-07-09T11:35:52;101896.16;;;34.62;44.47
75221;BME280;63802;53.232;6.570;2023-07-09T11:38:20;101886.56;;;34.96;45.84
75221;BME280;63802;53.232;6.570;2023-07-09T11:40:52;101895.56;;;34.94;46.31
75221;BME280;63802;53.232;6.570;2023-07-09T11:43:35;101894.25;;;35.27;44.89
75221;BME280;63802;53.232;6.570;2023-07-09T11:46:16;101885.97;;;34.50;45.73
75221;BME280;63802;53.232;6.570;2023-07-09T11:48:44;101891.63;;;34.50;46.27
75221;BME280;63802;53.232;6.570;2023-07-09T11:51:18;101890.78;;;34.69;47.24
75221;BME280;63802;53.232;6.570;2023-07-09T11:53:52;101894.78;;;34.94;48.68
75221;BME280;63802;53.232;6.570;2023-07-09T11:56:23;101891.84;;;34.77;47.85
75221;BME280;63802;53.232;6.570;2023-07-09T11:58:56;101892.63;;;35.15;47.00
75221;BME280;63802;53.232;6.570;2023-07-09T12:01:33;101898.16;;;35.40;44.61
75221;BME280;63802;53.232;6.570;2023-07-09T12:04:00;101883.19;;;34.92;45.76
75221;BME280;63802;53.232;6.570;2023-07-09T12:06:32;101889.22;;;35.05;47.23
75221;BME280;63802;53.232;6.570;2023-07-09T12:08:59;101887.81;;;34.89;47.65
75221;BME280;63802;53.232;6.570;2023-07-09T12:11:33;101895.56;;;34.94;44.76
75221;BME280;63802;53.232;6.570;2023-07-09T12:14:10;101901.75;;;35.35;41.62
75221;BME280;63802;53.232;6.570;2023-07-09T12:16:39;101885.53;;;34.99;43.44
75221;BME280;63802;53.232;6.570;2023-07-09T12:19:06;101880.06;;;34.53;43.15
75221;BME280;63802;53.232;6.570;2023-07-09T12:21:36;101884.53;;;34.65;40.49
75221;BME280;63802;53.232;6.570;2023-07-09T12:24:03;101874.81;;;34.41;41.44
75221;BME280;63802;53.232;6.570;2023-07-09T12:26:39;101880.63;;;34.57;41.07
75221;BME280;63802;53.232;6.570;2023-07-09T12:29:05;101890.06;;;34.80;39.93
75221;BME280;63802;53.232;6.570;2023-07-09T12:31:33;101885.44;;;34.51;40.54
75221;BME280;63802;53.232;6.570;2023-07-09T12:33:59;101873.50;;;34.67;40.45
75221;BME280;63802;53.232;6.570;2023-07-09T12:36:26;101884.13;;;34.47;41.05
75221;BME280;63802;53.232;6.570;2023-07-09T12:38:59;101877.56;;;34.61;40.47
75221;BME280;63802;53.232;6.570;2023-07-09T12:41:28;101865.94;;;34.59;42.38
75221;BME280;63802;53.232;6.570;2023-07-09T12:43:55;101874.19;;;34.57;42.55
75221;BME280;63802;53.232;6.570;2023-07-09T12:46:22;101863.22;;;34.44;41.98
75221;BME280;63802;53.232;6.570;2023-07-09T12:48:49;101861.97;;;34.51;42.06
75221;BME280;63802;53.232;6.570;2023-07-09T12:51:37;101852.59;;;34.33;42.68
75221;BME280;63802;53.232;6.570;2023-07-09T12:54:09;101852.28;;;34.63;43.20
75221;BME280;63802;53.232;6.570;2023-07-09T12:56:37;101870.34;;;35.02;41.84
75221;BME280;63802;53.232;6.570;2023-07-09T12:59:13;101870.56;;;34.93;41.45
75221;BME280;63802;53.232;6.570;2023-07-09T13:01:40;101867.00;;;34.61;43.45
75221;BME280;63802;53.232;6.570;2023-07-09T13:04:11;101853.28;;;34.54;42.78
75221;BME280;63802;53.232;6.570;2023-07-09T13:06:38;101854.88;;;34.61;42.74
75221;BME280;63802;53.232;6.570;2023-07-09T13:09:14;101847.88;;;34.25;44.60
75221;BME280;63802;53.232;6.570;2023-07-09T13:11:40;101843.78;;;34.31;45.14
75221;BME280;63802;53.232;6.570;2023-07-09T13:14:16;101852.88;;;34.41;44.81
75221;BME280;63802;53.232;6.570;2023-07-09T13:16:42;101852.66;;;34.45;45.05
75221;BME280;63802;53.232;6.570;2023-07-09T13:19:08;101857.22;;;34.36;45.18
75221;BME280;63802;53.232;6.570;2023-07-09T13:21:34;101849.97;;;34.30;44.37